ITY433 EDDM-LIRF
Flight info
| Callsign | ITY433 |
|---|---|
| Flight time | 1h 8m |
| Altitude | 37000 |
| Route | TURBU7S/26L TURBU Y107 TOBSO DCT BAKOR DCT VESAL DCT LAMPO DCT ROKIB DCT VIC DCT KOPER DCT SUKOM DCT BAGNO DCT GAVRA DCT RITEB |
| Aircraft | A320/M-SDE3FGHIRWY/LB1 |
Departure
| Time | 2026-05-06 17:55 |
|---|---|
| Airport | Munich Airport (EDDM) |
Arrival
| Time | 2026-05-06 19:04 |
|---|---|
| Airport | Rome–Fiumicino Leonardo da Vinci International Airport (LIRF) |
| Time | Latitude | Longitude | Altitude | Speed | Heading |
|---|---|---|---|---|---|
| 2026-05-06 17:17 | 48.35099 | 11.79368 | 1476 ft | 0 kts | 263° |
| 2026-05-06 17:45 | 48.35100 | 11.79389 | 1475 ft | 4 kts | 263° |
| 2026-05-06 17:45 | 48.35103 | 11.79429 | 1482 ft | 4 kts | 263° |
| 2026-05-06 17:45 | 48.35106 | 11.79461 | 1485 ft | 4 kts | 257° |
| 2026-05-06 17:45 | 48.35117 | 11.79495 | 1471 ft | 4 kts | 218° |
| 2026-05-06 17:46 | 48.35139 | 11.79509 | 1475 ft | 3 kts | 174° |
| 2026-05-06 17:46 | 48.35159 | 11.79505 | 1475 ft | 0 kts | 173° |
| 2026-05-06 17:49 | 48.35158 | 11.79505 | 1475 ft | 1 kts | 173° |
| 2026-05-06 17:50 | 48.35115 | 11.79513 | 1475 ft | 11 kts | 174° |
| 2026-05-06 17:50 | 48.35013 | 11.79530 | 1476 ft | 18 kts | 173° |
| 2026-05-06 17:50 | 48.34907 | 11.79549 | 1473 ft | 13 kts | 174° |
| 2026-05-06 17:50 | 48.34868 | 11.79556 | 1485 ft | 2 kts | 174° |
| 2026-05-06 17:51 | 48.34854 | 11.79558 | 1482 ft | 3 kts | 174° |
| 2026-05-06 17:51 | 48.34799 | 11.79630 | 1482 ft | 20 kts | 101° |
| 2026-05-06 17:51 | 48.34817 | 11.79890 | 1485 ft | 22 kts | 83° |
| 2026-05-06 17:51 | 48.34832 | 11.80109 | 1485 ft | 18 kts | 92° |
| 2026-05-06 17:52 | 48.34770 | 11.80229 | 1479 ft | 12 kts | 146° |
| 2026-05-06 17:52 | 48.34687 | 11.80249 | 1473 ft | 13 kts | 173° |
| 2026-05-06 17:52 | 48.34606 | 11.80264 | 1481 ft | 6 kts | 174° |
| 2026-05-06 17:52 | 48.34586 | 11.80268 | 1484 ft | 0 kts | 172° |
| 2026-05-06 17:54 | 48.34580 | 11.80269 | 1475 ft | 5 kts | 172° |
| 2026-05-06 17:54 | 48.34499 | 11.80266 | 1480 ft | 15 kts | 202° |
| 2026-05-06 17:54 | 48.34455 | 11.80129 | 1485 ft | 16 kts | 263° |
| 2026-05-06 17:54 | 48.34439 | 11.79918 | 1480 ft | 39 kts | 263° |
| 2026-05-06 17:55 | 48.34379 | 11.79161 | 1474 ft | 104 kts | 264° |
| 2026-05-06 17:55 | 48.34274 | 11.77812 | 1482 ft | 154 kts | 264° |
| 2026-05-06 17:55 | 48.34162 | 11.76175 | 2009 ft | 156 kts | 263° |
| 2026-05-06 17:55 | 48.34054 | 11.74511 | 2677 ft | 162 kts | 263° |
| 2026-05-06 17:56 | 48.33927 | 11.72731 | 3044 ft | 181 kts | 261° |
| 2026-05-06 17:56 | 48.33337 | 11.71003 | 3506 ft | 199 kts | 224° |
| 2026-05-06 17:56 | 48.32003 | 11.70207 | 4054 ft | 218 kts | 192° |
| 2026-05-06 17:56 | 48.30486 | 11.70128 | 4913 ft | 220 kts | 183° |
| 2026-05-06 17:57 | 48.28944 | 11.70287 | 5613 ft | 224 kts | 179° |
| 2026-05-06 17:57 | 48.27415 | 11.70866 | 6243 ft | 239 kts | 157° |
| 2026-05-06 17:57 | 48.25948 | 11.72325 | 6563 ft | 267 kts | 146° |
| 2026-05-06 17:57 | 48.24474 | 11.74158 | 6794 ft | 278 kts | 144° |
| 2026-05-06 17:58 | 48.22995 | 11.76030 | 6835 ft | 278 kts | 144° |
| 2026-05-06 17:58 | 48.21997 | 11.77245 | 6836 ft | 278 kts | 146° |
| 2026-05-06 17:58 | 48.20468 | 11.79009 | 6835 ft | 277 kts | 148° |
| 2026-05-06 17:58 | 48.18379 | 11.81223 | 6940 ft | 279 kts | 155° |
| 2026-05-06 17:59 | 48.16609 | 11.82341 | 7804 ft | 274 kts | 166° |
| 2026-05-06 17:59 | 48.15386 | 11.82955 | 8438 ft | 274 kts | 166° |
| 2026-05-06 17:59 | 48.13576 | 11.83863 | 9328 ft | 275 kts | 166° |
| 2026-05-06 17:59 | 48.11775 | 11.84762 | 10144 ft | 277 kts | 166° |
| 2026-05-06 18:00 | 48.09936 | 11.85677 | 10895 ft | 280 kts | 166° |
| 2026-05-06 18:00 | 48.08037 | 11.86619 | 11299 ft | 298 kts | 166° |
| 2026-05-06 18:00 | 48.05992 | 11.87626 | 11488 ft | 321 kts | 165° |
| 2026-05-06 18:00 | 48.03808 | 11.88703 | 11831 ft | 337 kts | 165° |
| 2026-05-06 18:01 | 48.01560 | 11.89820 | 12427 ft | 344 kts | 165° |
| 2026-05-06 18:01 | 47.99274 | 11.90958 | 13095 ft | 348 kts | 165° |
| 2026-05-06 18:01 | 47.96963 | 11.92106 | 13748 ft | 353 kts | 165° |
| 2026-05-06 18:01 | 47.94621 | 11.93268 | 14384 ft | 355 kts | 165° |
| 2026-05-06 18:02 | 47.92254 | 11.94361 | 14975 ft | 356 kts | 171° |
| 2026-05-06 18:02 | 47.89814 | 11.94837 | 15632 ft | 353 kts | 182° |
| 2026-05-06 18:02 | 47.87352 | 11.94799 | 16248 ft | 355 kts | 184° |
| 2026-05-06 18:02 | 47.84872 | 11.94741 | 16862 ft | 358 kts | 184° |
| 2026-05-06 18:03 | 47.82370 | 11.94684 | 17473 ft | 361 kts | 184° |
| 2026-05-06 18:03 | 47.79853 | 11.94630 | 18105 ft | 363 kts | 184° |
| 2026-05-06 18:03 | 47.77324 | 11.94582 | 18675 ft | 364 kts | 184° |
| 2026-05-06 18:03 | 47.74777 | 11.94540 | 19222 ft | 367 kts | 184° |
| 2026-05-06 18:04 | 47.72209 | 11.94497 | 19763 ft | 369 kts | 184° |
| 2026-05-06 18:04 | 47.69631 | 11.94451 | 20303 ft | 372 kts | 184° |
| 2026-05-06 18:04 | 47.67038 | 11.94407 | 20828 ft | 374 kts | 184° |
| 2026-05-06 18:04 | 47.64426 | 11.94363 | 21275 ft | 376 kts | 184° |
| 2026-05-06 18:05 | 47.61792 | 11.94319 | 21762 ft | 379 kts | 184° |
| 2026-05-06 18:05 | 47.59146 | 11.94273 | 22204 ft | 382 kts | 184° |
| 2026-05-06 18:05 | 47.56520 | 11.94229 | 22755 ft | 383 kts | 184° |
| 2026-05-06 18:05 | 47.53816 | 11.94183 | 23269 ft | 385 kts | 185° |
| 2026-05-06 18:06 | 47.51169 | 11.94141 | 23693 ft | 386 kts | 185° |
| 2026-05-06 18:06 | 47.48476 | 11.94098 | 24100 ft | 388 kts | 185° |
| 2026-05-06 18:06 | 47.45772 | 11.94055 | 24501 ft | 389 kts | 185° |
| 2026-05-06 18:06 | 47.43057 | 11.93965 | 24878 ft | 389 kts | 188° |
| 2026-05-06 18:07 | 47.40375 | 11.93476 | 25258 ft | 389 kts | 192° |
| 2026-05-06 18:07 | 47.37694 | 11.92936 | 25606 ft | 390 kts | 192° |
| 2026-05-06 18:07 | 47.34999 | 11.92391 | 25938 ft | 391 kts | 192° |
| 2026-05-06 18:07 | 47.32291 | 11.91848 | 26294 ft | 393 kts | 192° |
| 2026-05-06 18:08 | 47.29570 | 11.91304 | 26657 ft | 395 kts | 192° |
| 2026-05-06 18:08 | 47.26840 | 11.90757 | 27031 ft | 397 kts | 192° |
| 2026-05-06 18:08 | 47.24101 | 11.90211 | 27408 ft | 398 kts | 192° |
| 2026-05-06 18:08 | 47.21350 | 11.89663 | 27744 ft | 399 kts | 192° |
| 2026-05-06 18:09 | 47.18597 | 11.89117 | 28081 ft | 401 kts | 192° |
| 2026-05-06 18:09 | 47.15832 | 11.88570 | 28451 ft | 401 kts | 193° |
| 2026-05-06 18:09 | 47.13070 | 11.88024 | 28742 ft | 400 kts | 193° |
| 2026-05-06 18:09 | 47.10311 | 11.87478 | 28811 ft | 399 kts | 193° |
| 2026-05-06 18:10 | 47.04815 | 11.86391 | 28821 ft | 400 kts | 193° |
| 2026-05-06 18:10 | 46.99311 | 11.85187 | 28836 ft | 399 kts | 195° |
| 2026-05-06 18:11 | 46.93907 | 11.83509 | 28836 ft | 396 kts | 195° |
| 2026-05-06 18:11 | 46.91130 | 11.83224 | 28969 ft | 404 kts | 186° |
| 2026-05-06 18:11 | 46.88319 | 11.83214 | 29333 ft | 404 kts | 186° |
| 2026-05-06 18:12 | 46.85543 | 11.83204 | 29550 ft | 405 kts | 186° |
| 2026-05-06 18:12 | 46.82725 | 11.83196 | 29837 ft | 406 kts | 186° |
| 2026-05-06 18:12 | 46.79860 | 11.83191 | 30118 ft | 406 kts | 186° |
| 2026-05-06 18:12 | 46.77075 | 11.83188 | 30330 ft | 404 kts | 186° |
| 2026-05-06 18:13 | 46.74262 | 11.83181 | 30552 ft | 403 kts | 186° |
| 2026-05-06 18:13 | 46.71455 | 11.83172 | 30835 ft | 403 kts | 186° |
| 2026-05-06 18:13 | 46.68655 | 11.83164 | 31109 ft | 402 kts | 186° |
| 2026-05-06 18:13 | 46.65854 | 11.83156 | 31363 ft | 401 kts | 186° |
| 2026-05-06 18:14 | 46.63060 | 11.83145 | 31602 ft | 402 kts | 186° |
| 2026-05-06 18:14 | 46.60267 | 11.83134 | 31874 ft | 402 kts | 186° |
| 2026-05-06 18:14 | 46.57476 | 11.83128 | 32164 ft | 401 kts | 186° |
| 2026-05-06 18:14 | 46.54689 | 11.83124 | 32483 ft | 399 kts | 186° |
| 2026-05-06 18:15 | 46.51911 | 11.83119 | 32755 ft | 399 kts | 186° |
| 2026-05-06 18:15 | 46.49131 | 11.83114 | 33031 ft | 399 kts | 186° |
| 2026-05-06 18:15 | 46.46356 | 11.83109 | 33303 ft | 398 kts | 186° |
| 2026-05-06 18:15 | 46.43585 | 11.83103 | 33550 ft | 398 kts | 186° |
| 2026-05-06 18:16 | 46.40815 | 11.83097 | 33866 ft | 397 kts | 186° |
| 2026-05-06 18:16 | 46.38052 | 11.83094 | 34152 ft | 397 kts | 186° |
| 2026-05-06 18:16 | 46.35287 | 11.83091 | 34353 ft | 397 kts | 186° |
| 2026-05-06 18:16 | 46.32524 | 11.83083 | 34564 ft | 397 kts | 186° |
| 2026-05-06 18:17 | 46.29796 | 11.83072 | 34776 ft | 398 kts | 186° |
| 2026-05-06 18:17 | 46.27066 | 11.83062 | 34968 ft | 399 kts | 185° |
| 2026-05-06 18:17 | 46.24276 | 11.83053 | 35172 ft | 400 kts | 185° |
| 2026-05-06 18:17 | 46.21487 | 11.83046 | 35363 ft | 402 kts | 185° |
| 2026-05-06 18:18 | 46.18689 | 11.83039 | 35557 ft | 403 kts | 185° |
| 2026-05-06 18:18 | 46.15881 | 11.83032 | 35721 ft | 403 kts | 185° |
| 2026-05-06 18:18 | 46.13071 | 11.83025 | 35876 ft | 404 kts | 185° |
| 2026-05-06 18:18 | 46.10253 | 11.83015 | 36020 ft | 405 kts | 185° |
| 2026-05-06 18:19 | 46.07429 | 11.83004 | 36186 ft | 406 kts | 185° |
| 2026-05-06 18:19 | 46.04597 | 11.82997 | 36346 ft | 407 kts | 185° |
| 2026-05-06 18:19 | 46.01754 | 11.82995 | 36484 ft | 408 kts | 185° |
| 2026-05-06 18:19 | 45.98949 | 11.82993 | 36625 ft | 409 kts | 185° |
| 2026-05-06 18:20 | 45.96086 | 11.82987 | 36795 ft | 410 kts | 185° |
| 2026-05-06 18:20 | 45.93231 | 11.82981 | 36920 ft | 410 kts | 185° |
| 2026-05-06 18:20 | 45.87512 | 11.82964 | 36941 ft | 411 kts | 185° |
| 2026-05-06 18:21 | 45.81791 | 11.82949 | 36941 ft | 411 kts | 185° |
| 2026-05-06 18:21 | 45.76059 | 11.82933 | 36931 ft | 411 kts | 185° |
| 2026-05-06 18:22 | 45.70339 | 11.82918 | 36901 ft | 410 kts | 185° |
| 2026-05-06 18:22 | 45.64635 | 11.82913 | 36920 ft | 409 kts | 185° |
| 2026-05-06 18:23 | 45.58980 | 11.82903 | 36917 ft | 409 kts | 185° |
| 2026-05-06 18:23 | 45.53283 | 11.82892 | 36908 ft | 409 kts | 185° |
| 2026-05-06 18:24 | 45.47587 | 11.82876 | 36917 ft | 409 kts | 185° |
| 2026-05-06 18:24 | 45.41891 | 11.82852 | 36921 ft | 409 kts | 185° |
| 2026-05-06 18:25 | 45.36193 | 11.82831 | 36923 ft | 409 kts | 185° |
| 2026-05-06 18:25 | 45.30496 | 11.82827 | 36923 ft | 409 kts | 185° |
| 2026-05-06 18:26 | 45.24802 | 11.82815 | 36925 ft | 409 kts | 185° |
| 2026-05-06 18:26 | 45.19107 | 11.82800 | 36924 ft | 409 kts | 185° |
| 2026-05-06 18:27 | 45.13410 | 11.82795 | 36906 ft | 409 kts | 186° |
| 2026-05-06 18:27 | 45.07740 | 11.82781 | 36913 ft | 409 kts | 186° |
| 2026-05-06 18:28 | 45.02039 | 11.82761 | 36918 ft | 410 kts | 186° |
| 2026-05-06 18:28 | 44.96336 | 11.82746 | 36908 ft | 410 kts | 186° |
| 2026-05-06 18:29 | 44.90630 | 11.82733 | 36907 ft | 411 kts | 186° |
| 2026-05-06 18:29 | 44.84907 | 11.82719 | 36912 ft | 411 kts | 186° |
| 2026-05-06 18:30 | 44.79185 | 11.82707 | 36918 ft | 411 kts | 186° |
| 2026-05-06 18:30 | 44.73484 | 11.82694 | 36881 ft | 412 kts | 186° |
| 2026-05-06 18:31 | 44.67744 | 11.82691 | 36897 ft | 413 kts | 186° |
| 2026-05-06 18:31 | 44.61991 | 11.82675 | 36909 ft | 413 kts | 186° |
| 2026-05-06 18:32 | 44.56236 | 11.82644 | 36933 ft | 414 kts | 186° |
| 2026-05-06 18:32 | 44.50473 | 11.82635 | 36937 ft | 414 kts | 186° |
| 2026-05-06 18:33 | 44.44700 | 11.82626 | 36944 ft | 414 kts | 186° |
| 2026-05-06 18:33 | 44.38963 | 11.82609 | 36946 ft | 414 kts | 186° |
| 2026-05-06 18:34 | 44.33206 | 11.82595 | 36970 ft | 413 kts | 186° |
| 2026-05-06 18:34 | 44.27466 | 11.82590 | 36957 ft | 412 kts | 186° |
| 2026-05-06 18:35 | 44.21742 | 11.82578 | 36955 ft | 411 kts | 186° |
| 2026-05-06 18:35 | 44.16033 | 11.82564 | 36953 ft | 410 kts | 186° |
| 2026-05-06 18:36 | 44.10323 | 11.82552 | 36953 ft | 410 kts | 186° |
| 2026-05-06 18:36 | 44.04621 | 11.82542 | 36952 ft | 409 kts | 186° |
| 2026-05-06 18:37 | 43.99881 | 11.82526 | 36923 ft | 409 kts | 187° |
| 2026-05-06 18:37 | 43.93224 | 11.82512 | 36949 ft | 409 kts | 187° |
| 2026-05-06 18:38 | 43.87533 | 11.82508 | 36969 ft | 408 kts | 187° |
| 2026-05-06 18:38 | 43.81834 | 11.82502 | 36958 ft | 407 kts | 186° |
| 2026-05-06 18:39 | 43.76127 | 11.82938 | 36932 ft | 420 kts | 175° |
| 2026-05-06 18:40 | 43.67569 | 11.85628 | 36952 ft | 420 kts | 178° |
| 2026-05-06 18:40 | 43.64669 | 11.86260 | 36470 ft | 422 kts | 178° |
| 2026-05-06 18:40 | 43.61738 | 11.86829 | 35408 ft | 428 kts | 179° |
| 2026-05-06 18:40 | 43.58777 | 11.87357 | 34486 ft | 429 kts | 179° |
| 2026-05-06 18:41 | 43.55823 | 11.87870 | 33613 ft | 427 kts | 179° |
| 2026-05-06 18:41 | 43.52871 | 11.88386 | 32570 ft | 428 kts | 179° |
| 2026-05-06 18:41 | 43.49904 | 11.88915 | 31437 ft | 432 kts | 179° |
| 2026-05-06 18:41 | 43.46923 | 11.89459 | 30201 ft | 431 kts | 178° |
| 2026-05-06 18:42 | 43.43985 | 11.90012 | 29498 ft | 419 kts | 178° |
| 2026-05-06 18:42 | 43.41126 | 11.90558 | 28917 ft | 412 kts | 178° |
| 2026-05-06 18:42 | 43.38315 | 11.91091 | 28353 ft | 404 kts | 178° |
| 2026-05-06 18:42 | 43.35544 | 11.91607 | 27777 ft | 400 kts | 178° |
| 2026-05-06 18:43 | 43.33725 | 11.91943 | 27401 ft | 397 kts | 178° |
| 2026-05-06 18:43 | 43.31004 | 11.92442 | 26849 ft | 392 kts | 178° |
| 2026-05-06 18:43 | 43.28312 | 11.92935 | 26301 ft | 388 kts | 178° |
| 2026-05-06 18:43 | 43.25651 | 11.93417 | 25758 ft | 384 kts | 178° |
| 2026-05-06 18:44 | 43.23003 | 11.93896 | 25217 ft | 381 kts | 178° |
| 2026-05-06 18:44 | 43.20385 | 11.94372 | 24678 ft | 378 kts | 178° |
| 2026-05-06 18:44 | 43.17793 | 11.94847 | 24172 ft | 375 kts | 178° |
| 2026-05-06 18:44 | 43.15219 | 11.95317 | 23665 ft | 372 kts | 178° |
| 2026-05-06 18:45 | 43.12657 | 11.95788 | 23112 ft | 370 kts | 178° |
| 2026-05-06 18:45 | 43.10121 | 11.96254 | 22654 ft | 365 kts | 178° |
| 2026-05-06 18:45 | 43.07617 | 11.96712 | 22204 ft | 361 kts | 178° |
| 2026-05-06 18:45 | 43.05138 | 11.97163 | 21773 ft | 357 kts | 178° |
| 2026-05-06 18:46 | 43.02687 | 11.97610 | 21359 ft | 353 kts | 178° |
| 2026-05-06 18:46 | 43.00269 | 11.98051 | 20956 ft | 349 kts | 178° |
| 2026-05-06 18:46 | 42.97877 | 11.98484 | 20530 ft | 345 kts | 177° |
| 2026-05-06 18:46 | 42.95508 | 11.98913 | 20117 ft | 341 kts | 176° |
| 2026-05-06 18:47 | 42.93189 | 11.99334 | 19712 ft | 339 kts | 176° |
| 2026-05-06 18:47 | 42.90856 | 11.99755 | 19304 ft | 337 kts | 176° |
| 2026-05-06 18:47 | 42.88533 | 12.00173 | 18874 ft | 336 kts | 176° |
| 2026-05-06 18:47 | 42.86220 | 12.00588 | 18442 ft | 334 kts | 175° |
| 2026-05-06 18:48 | 42.83921 | 12.01002 | 17981 ft | 332 kts | 175° |
| 2026-05-06 18:48 | 42.81636 | 12.01418 | 17530 ft | 331 kts | 175° |
| 2026-05-06 18:48 | 42.79358 | 12.01836 | 17090 ft | 329 kts | 175° |
| 2026-05-06 18:48 | 42.77095 | 12.02249 | 16660 ft | 328 kts | 175° |
| 2026-05-06 18:49 | 42.74825 | 12.02656 | 16212 ft | 328 kts | 175° |
| 2026-05-06 18:49 | 42.72559 | 12.03061 | 15782 ft | 327 kts | 175° |
| 2026-05-06 18:49 | 42.70300 | 12.03464 | 15352 ft | 327 kts | 175° |
| 2026-05-06 18:49 | 42.68043 | 12.03871 | 14903 ft | 326 kts | 175° |
| 2026-05-06 18:50 | 42.65791 | 12.04282 | 14457 ft | 326 kts | 175° |
| 2026-05-06 18:50 | 42.63566 | 12.04687 | 14028 ft | 326 kts | 175° |
| 2026-05-06 18:50 | 42.61318 | 12.05091 | 13558 ft | 326 kts | 175° |
| 2026-05-06 18:50 | 42.59072 | 12.05491 | 13085 ft | 324 kts | 175° |
| 2026-05-06 18:51 | 42.56843 | 12.05892 | 12637 ft | 322 kts | 175° |
| 2026-05-06 18:51 | 42.54625 | 12.06292 | 12192 ft | 320 kts | 174° |
| 2026-05-06 18:51 | 42.52441 | 12.06686 | 11978 ft | 310 kts | 175° |
| 2026-05-06 18:51 | 42.50338 | 12.07068 | 11890 ft | 298 kts | 175° |
| 2026-05-06 18:52 | 42.48316 | 12.07432 | 11771 ft | 287 kts | 175° |
| 2026-05-06 18:52 | 42.46371 | 12.07780 | 11649 ft | 277 kts | 175° |
| 2026-05-06 18:52 | 42.44491 | 12.08119 | 11528 ft | 268 kts | 176° |
| 2026-05-06 18:52 | 42.42692 | 12.08444 | 11411 ft | 259 kts | 175° |
| 2026-05-06 18:53 | 42.40912 | 12.08764 | 11296 ft | 249 kts | 175° |
| 2026-05-06 18:53 | 42.39232 | 12.09067 | 11188 ft | 239 kts | 175° |
| 2026-05-06 18:53 | 42.37638 | 12.09634 | 10951 ft | 237 kts | 166° |
| 2026-05-06 18:53 | 42.36058 | 12.10300 | 10595 ft | 239 kts | 165° |
| 2026-05-06 18:54 | 42.34466 | 12.10976 | 10263 ft | 240 kts | 166° |
| 2026-05-06 18:54 | 42.32870 | 12.11656 | 9928 ft | 241 kts | 166° |
| 2026-05-06 18:54 | 42.31264 | 12.12339 | 9566 ft | 242 kts | 166° |
| 2026-05-06 18:54 | 42.29655 | 12.13022 | 9230 ft | 242 kts | 166° |
| 2026-05-06 18:55 | 42.28066 | 12.13697 | 8890 ft | 242 kts | 166° |
| 2026-05-06 18:55 | 42.26466 | 12.14378 | 8568 ft | 240 kts | 166° |
| 2026-05-06 18:55 | 42.24874 | 12.15053 | 8242 ft | 240 kts | 166° |
| 2026-05-06 18:55 | 42.23281 | 12.15729 | 7916 ft | 239 kts | 166° |
| 2026-05-06 18:56 | 42.21696 | 12.16399 | 7586 ft | 239 kts | 166° |
| 2026-05-06 18:56 | 42.20111 | 12.17069 | 7257 ft | 238 kts | 166° |
| 2026-05-06 18:56 | 42.18535 | 12.17736 | 6931 ft | 237 kts | 165° |
| 2026-05-06 18:56 | 42.16964 | 12.18400 | 6588 ft | 236 kts | 165° |
| 2026-05-06 18:57 | 42.15399 | 12.19046 | 6283 ft | 234 kts | 169° |
| 2026-05-06 18:57 | 42.13793 | 12.19217 | 5955 ft | 230 kts | 182° |
| 2026-05-06 18:57 | 42.12204 | 12.19186 | 5639 ft | 228 kts | 182° |
| 2026-05-06 18:57 | 42.10646 | 12.19159 | 5326 ft | 226 kts | 181° |
| 2026-05-06 18:58 | 42.09078 | 12.19135 | 5015 ft | 224 kts | 181° |
| 2026-05-06 18:58 | 42.07525 | 12.19111 | 4705 ft | 222 kts | 181° |
| 2026-05-06 18:58 | 42.05988 | 12.19089 | 4382 ft | 220 kts | 181° |
| 2026-05-06 18:58 | 42.04462 | 12.19067 | 4091 ft | 218 kts | 180° |
| 2026-05-06 18:59 | 42.02947 | 12.19045 | 3791 ft | 216 kts | 180° |
| 2026-05-06 18:59 | 42.01482 | 12.19125 | 3490 ft | 204 kts | 169° |
| 2026-05-06 18:59 | 42.00157 | 12.19608 | 3239 ft | 190 kts | 164° |
| 2026-05-06 18:59 | 41.98947 | 12.20119 | 2977 ft | 175 kts | 164° |
| 2026-05-06 19:00 | 41.97842 | 12.20587 | 2755 ft | 158 kts | 164° |
| 2026-05-06 19:00 | 41.96845 | 12.21007 | 2556 ft | 142 kts | 164° |
| 2026-05-06 19:00 | 41.95939 | 12.21388 | 2375 ft | 133 kts | 164° |
| 2026-05-06 19:00 | 41.95071 | 12.21752 | 2190 ft | 129 kts | 163° |
| 2026-05-06 19:01 | 41.94221 | 12.22109 | 2026 ft | 127 kts | 163° |
| 2026-05-06 19:01 | 41.93380 | 12.22460 | 1867 ft | 126 kts | 164° |
| 2026-05-06 19:01 | 41.92548 | 12.22822 | 1696 ft | 125 kts | 162° |
| 2026-05-06 19:01 | 41.91712 | 12.23162 | 1484 ft | 126 kts | 164° |
| 2026-05-06 19:02 | 41.90880 | 12.23507 | 1305 ft | 125 kts | 163° |
| 2026-05-06 19:02 | 41.90047 | 12.23874 | 1180 ft | 125 kts | 163° |
| 2026-05-06 19:02 | 41.89224 | 12.24212 | 1015 ft | 124 kts | 163° |
| 2026-05-06 19:02 | 41.88388 | 12.24576 | 841 ft | 128 kts | 161° |
| 2026-05-06 19:03 | 41.87561 | 12.24926 | 639 ft | 126 kts | 162° |
| 2026-05-06 19:03 | 41.86711 | 12.25260 | 484 ft | 127 kts | 163° |
| 2026-05-06 19:03 | 41.85866 | 12.25632 | 280 ft | 134 kts | 162° |
| 2026-05-06 19:03 | 41.84950 | 12.26007 | 158 ft | 136 kts | 161° |
| 2026-05-06 19:04 | 41.84064 | 12.26375 | 28 ft | 127 kts | 161° |
| 2026-05-06 19:04 | 41.83319 | 12.26688 | 12 ft | 93 kts | 161° |
| 2026-05-06 19:04 | 41.82896 | 12.26855 | 14 ft | 33 kts | 171° |
| 2026-05-06 19:04 | 41.82679 | 12.26860 | 11 ft | 32 kts | 190° |
| 2026-05-06 19:05 | 41.82539 | 12.26820 | 10 ft | 10 kts | 192° |
| 2026-05-06 19:05 | 41.82472 | 12.26800 | 11 ft | 10 kts | 192° |
| 2026-05-06 19:05 | 41.82395 | 12.26780 | 11 ft | 15 kts | 185° |
| 2026-05-06 19:05 | 41.82273 | 12.26801 | 11 ft | 22 kts | 162° |
| 2026-05-06 19:06 | 41.82063 | 12.26878 | 11 ft | 26 kts | 172° |
| 2026-05-06 19:06 | 41.81926 | 12.26944 | 13 ft | 19 kts | 159° |
| 2026-05-06 19:06 | 41.81800 | 12.26929 | 11 ft | 18 kts | 192° |
| 2026-05-06 19:06 | 41.81680 | 12.26910 | 10 ft | 18 kts | 176° |
| 2026-05-06 19:07 | 41.81560 | 12.26962 | 10 ft | 19 kts | 161° |
| 2026-05-06 19:07 | 41.81434 | 12.27022 | 10 ft | 20 kts | 160° |
| 2026-05-06 19:07 | 41.81320 | 12.27066 | 10 ft | 14 kts | 167° |
| 2026-05-06 19:07 | 41.81233 | 12.27098 | 13 ft | 10 kts | 163° |
| 2026-05-06 19:08 | 41.81158 | 12.27128 | 11 ft | 12 kts | 163° |
| 2026-05-06 19:08 | 41.81080 | 12.27160 | 12 ft | 10 kts | 163° |
| 2026-05-06 19:08 | 41.81015 | 12.27190 | 12 ft | 10 kts | 160° |
| 2026-05-06 19:08 | 41.80947 | 12.27221 | 14 ft | 9 kts | 168° |
| 2026-05-06 19:09 | 41.80921 | 12.27223 | 12 ft | 1 kts | 179° |
| 2026-05-06 19:09 | 41.80866 | 12.27215 | 12 ft | 21 kts | 189° |
| 2026-05-06 19:09 | 41.80744 | 12.27029 | 13 ft | 35 kts | 250° |
| 2026-05-06 19:09 | 41.80637 | 12.26666 | 15 ft | 49 kts | 246° |
| 2026-05-06 19:10 | 41.80536 | 12.26252 | 16 ft | 34 kts | 250° |
| 2026-05-06 19:10 | 41.80398 | 12.26148 | 15 ft | 32 kts | 206° |
| 2026-05-06 19:10 | 41.80201 | 12.26027 | 15 ft | 31 kts | 205° |
| 2026-05-06 19:10 | 41.80074 | 12.25948 | 14 ft | 18 kts | 205° |
| 2026-05-06 19:11 | 41.79938 | 12.25864 | 14 ft | 13 kts | 202° |
| 2026-05-06 19:11 | 41.79902 | 12.25817 | 14 ft | 7 kts | 255° |
| 2026-05-06 19:11 | 41.79912 | 12.25650 | 14 ft | 10 kts | 300° |
| 2026-05-06 19:11 | 41.79931 | 12.25603 | 14 ft | 6 kts | 293° |
| 2026-05-06 19:12 | 41.79911 | 12.25517 | 14 ft | 14 kts | 210° |
| 2026-05-06 19:12 | 41.79831 | 12.25471 | 15 ft | 7 kts | 204° |
| 2026-05-06 19:12 | 41.79801 | 12.25453 | 14 ft | 1 kts | 205° |
| 2026-05-06 19:12 | 41.79799 | 12.25452 | 14 ft | 0 kts | 205° |
| 2026-05-06 19:13 | 41.79789 | 12.25422 | 14 ft | 11 kts | 260° |
| 2026-05-06 19:13 | 41.79806 | 12.25356 | 15 ft | 5 kts | 295° |
| 2026-05-06 19:13 | 41.79816 | 12.25328 | 15 ft | 2 kts | 295° |
| 2026-05-06 19:13 | 41.79818 | 12.25322 | 15 ft | 0 kts | 294° |